Estación Meteorológica Peña el Pijo (Robertgarden) [ 12/17/17 01:38:24 CET ]

Fecha Hora Presion(HPa) Temp (°C) Humedad % Rocio (°C) Viento ( m/s) Direccion Lluvia 1Hora(mm) Lluvia 24H(mm) LLuvia Total(mm)
2017-Dec-02 01:01:41 1008.700 -3.4 77 -6.9         1479.92
2017-Dec-02 02:01:42 1008.600 -3.7 77 -7.2         1479.92
2017-Dec-02 03:01:45 1008.700 -3.9 78 -7.2         1479.92
2017-Dec-02 04:01:45 1008.800 -4.9 79 -8.0         1479.92
2017-Dec-02 05:01:40 1008.600 -5.0 79 -8.1         1479.92
2017-Dec-02 06:01:42 1008.600 -5.2 77 -8.6         1479.92
2017-Dec-02 07:02:00 1008.800 -5.1 77 -8.5         1479.92
2017-Dec-02 08:02:00 1009.100 -5.3 77 -8.7         1479.92
2017-Dec-02 09:01:41 1009.400 -4.1 78 -7.4         1479.92
2017-Dec-02 10:01:52 1009.600 0.5 77 -3.1         1479.92
2017-Dec-02 11:02:05 1009.900 3.6 67 -2.0     0.51 0.51 1480.44
2017-Dec-02 12:01:51 1009.500 3.8 57 -4.0     1.03 1.55 1481.48
2017-Dec-02 13:01:52 1009.300 4.3 55 -4.0       1.55 1481.48
2017-Dec-02 14:01:54 1008.600 5.5 51 -3.9       1.55 1481.48
2017-Dec-02 15:01:53 1008.100 5.3 52 -3.8       1.55 1481.48
2017-Dec-02 16:01:42 1008.400 3.2 56 -4.8       1.55 1481.48
2017-Dec-02 17:01:48 1008.400 2.5 58 -4.9       1.55 1481.48
2017-Dec-02 18:01:38 1008.300 1.9 61 -4.8       1.55 1481.48
2017-Dec-02 19:01:37 1008.500 1.6 62 -4.9       1.55 1481.48
2017-Dec-02 20:01:32 1008.800 1.5 62 -5.0       1.55 1481.48
2017-Dec-02 21:01:52 1009.200 0.9 61 -5.8       1.55 0.00
2017-Dec-02 22:01:49 1009.500 0.8 63 -5.5       1.55 0.00
2017-Dec-02 23:01:51 1010.000 1.0 63 -5.3       1.55 0.00

Temperatura Máxima:    Temperatura Mínima:-5°
Presión Máxima:1010.000 Hpa    Presión Mínima:1008.100 Hpa


Volver